CYQL

Lethbridge County Airport

Lethbridge, Alberta, Canada
TAF CYQL 171138Z 1712/1724 23008KT 4SM FU HZ SKC TEMPO 1712/1723 2SM FU VV030 BECMG 1715/1717 27008KT FM172300 27008KT 4SM FU SCT070 RMK FCST BASED ON AUTO OBS. NXT FCST BY 171800Z
Issued Valid From Valid To
Aug-17 @ 11:38 UTC
(3 hours ago)
Aug-17 @ 12:00 UTC
(3 hours ago)
Aug-18 @ 00:00 UTC
(in 9 hours)
Aug-17 @ 12:00 to Aug-17 @ 15:00
TAF CYQL 171138Z 1712/1724 23008KT 4SM FU HZ SKC
Wind Visibility Clouds Conditions
230° at 8 knots 4 miles
  • Clear skies
  • Smoke
  • Haze
Temporary Aug-17 @ 12:00 to Aug-17 @ 23:00
TEMPO 1712/1723 2SM FU VV030
Visibility Clouds Conditions
2 miles
  • Vertical visibility at 3,000' AGL
  • Smoke
Becoming Aug-17 @ 15:00 to Aug-17 @ 23:00
BECMG 1715/1717 27008KT
Wind Visibility Clouds Conditions
270° at 8 knots 4 miles
  • Clear skies
  • Smoke
  • Haze
From Aug-17 @ 23:00 to Aug-18 @ 00:00
FM172300 27008KT 4SM FU SCT070 RMK FCST BASED ON AUTO OBS. NXT FCST BY 171800Z
Wind Visibility Clouds Conditions
270° at 8 knots 4 miles
  • Scattered at 7,000' AGL
  • Smoke
TAF CYQL 171138Z 1712/1724 23008KT 4SM FU HZ SKC TEMPO 1712/1723 2SM FU VV030 BECMG 1715/1717 27008KT FM172300 27008KT 4SM FU SCT070 RMK FCST BASED ON AUTO OBS. NXT FCST BY 171800Z
Issued Aug-17 @ 11:38 UTC
(3 hours ago)
Valid From Aug-17 @ 12:00 UTC
(3 hours ago)
Valid To Aug-18 @ 00:00 UTC
(in 9 hours)
Aug-17 @ 12:00 - Aug-17 @ 15:00
Wind Visibility
230° at 8 knots 4 miles
Clouds
  • Clear skies
Conditions
  • Smoke
  • Haze
Temporary Aug-17 @ 12:00 - Aug-17 @ 23:00
Clouds
  • Vertical visibility at 3,000' AGL
Conditions
  • Smoke
Becoming Aug-17 @ 15:00 - Aug-17 @ 23:00
Wind Visibility
270° at 8 knots 4 miles
Clouds
  • Clear skies
Conditions
  • Smoke
  • Haze
From Aug-17 @ 23:00 - Aug-18 @ 00:00
Wind Visibility
270° at 8 knots 4 miles
Clouds
  • Scattered at 7,000' AGL
Conditions
  • Smoke